sensor_id;sensor_type;location;lat;lon;timestamp;P1;durP1;ratioP1;P2;durP2;ratioP2
4672;SDS011;61885;53.560;9.940;2023-02-17T00:00:39;0.60;;;0.30;;
4672;SDS011;61885;53.560;9.940;2023-02-17T00:03:10;0.87;;;0.87;;
4672;SDS011;61885;53.560;9.940;2023-02-17T00:05:40;0.70;;;0.40;;
4672;SDS011;61885;53.560;9.940;2023-02-17T00:08:11;0.97;;;0.97;;
4672;SDS011;61885;53.560;9.940;2023-02-17T00:10:43;0.60;;;0.30;;
4672;SDS011;61885;53.560;9.940;2023-02-17T00:13:13;0.60;;;0.30;;
4672;SDS011;61885;53.560;9.940;2023-02-17T00:15:42;0.60;;;0.30;;
4672;SDS011;61885;53.560;9.940;2023-02-17T00:18:16;0.60;;;0.30;;
4672;SDS011;61885;53.560;9.940;2023-02-17T00:20:46;0.60;;;0.30;;
4672;SDS011;61885;53.560;9.940;2023-02-17T00:23:18;0.60;;;0.30;;
4672;SDS011;61885;53.560;9.940;2023-02-17T00:25:53;1.53;;;1.43;;
4672;SDS011;61885;53.560;9.940;2023-02-17T00:28:22;0.60;;;0.30;;
4672;SDS011;61885;53.560;9.940;2023-02-17T00:30:53;0.60;;;0.30;;
4672;SDS011;61885;53.560;9.940;2023-02-17T00:33:22;0.60;;;0.30;;
4672;SDS011;61885;53.560;9.940;2023-02-17T00:35:51;0.60;;;0.30;;
4672;SDS011;61885;53.560;9.940;2023-02-17T00:38:22;0.60;;;0.30;;
4672;SDS011;61885;53.560;9.940;2023-02-17T00:40:54;0.60;;;0.30;;
4672;SDS011;61885;53.560;9.940;2023-02-17T00:43:42;0.60;;;0.30;;
4672;SDS011;61885;53.560;9.940;2023-02-17T00:46:12;0.60;;;0.30;;
4672;SDS011;61885;53.560;9.940;2023-02-17T00:48:45;0.60;;;0.30;;
4672;SDS011;61885;53.560;9.940;2023-02-17T00:51:16;0.60;;;0.30;;
4672;SDS011;61885;53.560;9.940;2023-02-17T00:53:46;0.60;;;0.40;;
4672;SDS011;61885;53.560;9.940;2023-02-17T00:56:18;0.60;;;0.30;;
4672;SDS011;61885;53.560;9.940;2023-02-17T00:58:53;0.60;;;0.20;;
4672;SDS011;61885;53.560;9.940;2023-02-17T01:01:22;0.70;;;0.40;;
4672;SDS011;61885;53.560;9.940;2023-02-17T01:03:52;0.60;;;0.30;;
4672;SDS011;61885;53.560;9.940;2023-02-17T01:06:22;0.60;;;0.30;;
4672;SDS011;61885;53.560;9.940;2023-02-17T01:08:53;0.60;;;0.40;;
4672;SDS011;61885;53.560;9.940;2023-02-17T01:11:30;0.60;;;0.30;;
4672;SDS011;61885;53.560;9.940;2023-02-17T01:14:03;0.77;;;0.67;;
4672;SDS011;61885;53.560;9.940;2023-02-17T01:16:36;0.60;;;0.30;;
4672;SDS011;61885;53.560;9.940;2023-02-17T01:19:13;0.60;;;0.30;;
4672;SDS011;61885;53.560;9.940;2023-02-17T01:21:44;0.60;;;0.50;;
4672;SDS011;61885;53.560;9.940;2023-02-17T01:24:15;0.60;;;0.30;;
4672;SDS011;61885;53.560;9.940;2023-02-17T01:26:47;0.60;;;0.30;;
4672;SDS011;61885;53.560;9.940;2023-02-17T01:29:17;0.60;;;0.30;;
4672;SDS011;61885;53.560;9.940;2023-02-17T01:31:47;0.60;;;0.30;;
4672;SDS011;61885;53.560;9.940;2023-02-17T01:34:16;0.60;;;0.30;;
4672;SDS011;61885;53.560;9.940;2023-02-17T01:36:46;0.60;;;0.30;;
4672;SDS011;61885;53.560;9.940;2023-02-17T01:39:16;0.70;;;0.50;;
4672;SDS011;61885;53.560;9.940;2023-02-17T01:41:48;0.60;;;0.30;;
4672;SDS011;61885;53.560;9.940;2023-02-17T01:44:19;0.60;;;0.30;;
4672;SDS011;61885;53.560;9.940;2023-02-17T01:46:52;1.93;;;0.77;;
4672;SDS011;61885;53.560;9.940;2023-02-17T01:49:26;0.60;;;0.40;;
4672;SDS011;61885;53.560;9.940;2023-02-17T01:52:04;0.60;;;0.30;;
4672;SDS011;61885;53.560;9.940;2023-02-17T01:54:39;0.60;;;0.30;;
4672;SDS011;61885;53.560;9.940;2023-02-17T01:57:15;0.60;;;0.30;;
4672;SDS011;61885;53.560;9.940;2023-02-17T01:59:52;0.60;;;0.30;;
4672;SDS011;61885;53.560;9.940;2023-02-17T02:02:24;0.70;;;0.70;;
4672;SDS011;61885;53.560;9.940;2023-02-17T02:04:55;0.60;;;0.30;;
4672;SDS011;61885;53.560;9.940;2023-02-17T02:07:29;0.60;;;0.30;;
4672;SDS011;61885;53.560;9.940;2023-02-17T02:10:02;0.70;;;0.63;;
4672;SDS011;61885;53.560;9.940;2023-02-17T02:12:36;0.60;;;0.30;;
4672;SDS011;61885;53.560;9.940;2023-02-17T02:15:09;0.60;;;0.30;;
4672;SDS011;61885;53.560;9.940;2023-02-17T02:17:43;0.70;;;0.40;;
4672;SDS011;61885;53.560;9.940;2023-02-17T02:20:26;0.60;;;0.30;;
4672;SDS011;61885;53.560;9.940;2023-02-17T02:26:09;0.60;;;0.30;;
4672;SDS011;61885;53.560;9.940;2023-02-17T02:29:10;0.60;;;0.30;;
4672;SDS011;61885;53.560;9.940;2023-02-17T02:31:54;0.60;;;0.50;;
4672;SDS011;61885;53.560;9.940;2023-02-17T02:34:44;0.70;;;0.57;;
4672;SDS011;61885;53.560;9.940;2023-02-17T02:37:21;0.60;;;0.30;;
4672;SDS011;61885;53.560;9.940;2023-02-17T02:39:54;0.60;;;0.30;;
4672;SDS011;61885;53.560;9.940;2023-02-17T02:42:27;0.67;;;0.40;;
4672;SDS011;61885;53.560;9.940;2023-02-17T02:44:58;0.60;;;0.30;;
4672;SDS011;61885;53.560;9.940;2023-02-17T02:47:41;0.70;;;0.40;;
4672;SDS011;61885;53.560;9.940;2023-02-17T02:50:20;0.60;;;0.30;;
4672;SDS011;61885;53.560;9.940;2023-02-17T02:53:03;0.70;;;0.60;;
4672;SDS011;61885;53.560;9.940;2023-02-17T02:55:45;1.73;;;1.63;;
4672;SDS011;61885;53.560;9.940;2023-02-17T02:58:21;1.30;;;0.83;;
4672;SDS011;61885;53.560;9.940;2023-02-17T03:00:57;2.30;;;1.40;;
4672;SDS011;61885;53.560;9.940;2023-02-17T03:03:32;1.80;;;1.50;;
4672;SDS011;61885;53.560;9.940;2023-02-17T03:06:12;0.60;;;0.40;;
4672;SDS011;61885;53.560;9.940;2023-02-17T03:08:47;2.30;;;1.83;;
4672;SDS011;61885;53.560;9.940;2023-02-17T03:11:24;2.37;;;1.90;;
4672;SDS011;61885;53.560;9.940;2023-02-17T03:14:01;0.60;;;0.30;;
4672;SDS011;61885;53.560;9.940;2023-02-17T03:16:32;0.60;;;0.30;;
4672;SDS011;61885;53.560;9.940;2023-02-17T03:19:13;0.60;;;0.30;;
4672;SDS011;61885;53.560;9.940;2023-02-17T03:21:54;0.60;;;0.30;;
4672;SDS011;61885;53.560;9.940;2023-02-17T03:24:27;0.60;;;0.30;;
4672;SDS011;61885;53.560;9.940;2023-02-17T03:26:59;0.60;;;0.30;;
4672;SDS011;61885;53.560;9.940;2023-02-17T03:29:28;0.70;;;0.40;;
4672;SDS011;61885;53.560;9.940;2023-02-17T03:31:58;0.60;;;0.40;;
4672;SDS011;61885;53.560;9.940;2023-02-17T03:34:29;0.60;;;0.40;;
4672;SDS011;61885;53.560;9.940;2023-02-17T03:37:01;0.60;;;0.30;;
4672;SDS011;61885;53.560;9.940;2023-02-17T03:39:33;0.60;;;0.30;;
4672;SDS011;61885;53.560;9.940;2023-02-17T03:42:03;0.60;;;0.30;;
4672;SDS011;61885;53.560;9.940;2023-02-17T03:44:33;0.60;;;0.30;;
4672;SDS011;61885;53.560;9.940;2023-02-17T03:47:02;0.60;;;0.30;;
4672;SDS011;61885;53.560;9.940;2023-02-17T03:49:34;0.60;;;0.30;;
4672;SDS011;61885;53.560;9.940;2023-02-17T03:52:06;0.67;;;0.43;;
4672;SDS011;61885;53.560;9.940;2023-02-17T03:54:35;0.60;;;0.30;;
4672;SDS011;61885;53.560;9.940;2023-02-17T03:57:07;0.60;;;0.30;;
4672;SDS011;61885;53.560;9.940;2023-02-17T03:59:39;1.53;;;0.70;;
4672;SDS011;61885;53.560;9.940;2023-02-17T04:02:18;0.60;;;0.30;;
4672;SDS011;61885;53.560;9.940;2023-02-17T04:04:47;2.20;;;2.10;;
4672;SDS011;61885;53.560;9.940;2023-02-17T04:07:19;0.60;;;0.30;;
4672;SDS011;61885;53.560;9.940;2023-02-17T04:09:49;0.60;;;0.30;;
4672;SDS011;61885;53.560;9.940;2023-02-17T04:12:19;0.70;;;0.60;;
4672;SDS011;61885;53.560;9.940;2023-02-17T04:14:48;1.13;;;0.97;;
4672;SDS011;61885;53.560;9.940;2023-02-17T04:17:18;0.60;;;0.30;;
4672;SDS011;61885;53.560;9.940;2023-02-17T04:19:48;0.60;;;0.30;;
4672;SDS011;61885;53.560;9.940;2023-02-17T04:22:20;0.60;;;0.30;;
4672;SDS011;61885;53.560;9.940;2023-02-17T04:24:50;0.60;;;0.30;;
4672;SDS011;61885;53.560;9.940;2023-02-17T04:27:19;0.60;;;0.30;;
4672;SDS011;61885;53.560;9.940;2023-02-17T04:29:50;0.60;;;0.30;;
4672;SDS011;61885;53.560;9.940;2023-02-17T04:32:20;0.60;;;0.30;;
4672;SDS011;61885;53.560;9.940;2023-02-17T04:34:49;0.60;;;0.30;;
4672;SDS011;61885;53.560;9.940;2023-02-17T04:37:22;0.60;;;0.30;;
4672;SDS011;61885;53.560;9.940;2023-02-17T04:39:52;0.60;;;0.30;;
4672;SDS011;61885;53.560;9.940;2023-02-17T04:42:21;1.40;;;1.07;;
4672;SDS011;61885;53.560;9.940;2023-02-17T04:44:51;0.60;;;0.30;;
4672;SDS011;61885;53.560;9.940;2023-02-17T04:47:23;0.60;;;0.30;;
4672;SDS011;61885;53.560;9.940;2023-02-17T04:49:55;0.60;;;0.30;;
4672;SDS011;61885;53.560;9.940;2023-02-17T04:52:29;0.60;;;0.30;;
4672;SDS011;61885;53.560;9.940;2023-02-17T04:55:04;0.60;;;0.30;;
4672;SDS011;61885;53.560;9.940;2023-02-17T04:57:39;0.60;;;0.30;;
4672;SDS011;61885;53.560;9.940;2023-02-17T05:00:09;0.60;;;0.30;;
4672;SDS011;61885;53.560;9.940;2023-02-17T05:02:39;0.60;;;0.30;;
4672;SDS011;61885;53.560;9.940;2023-02-17T05:05:10;0.70;;;0.57;;
4672;SDS011;61885;53.560;9.940;2023-02-17T05:07:46;0.60;;;0.30;;
4672;SDS011;61885;53.560;9.940;2023-02-17T05:10:16;0.60;;;0.30;;
4672;SDS011;61885;53.560;9.940;2023-02-17T05:12:47;2.43;;;1.33;;
4672;SDS011;61885;53.560;9.940;2023-02-17T05:15:17;0.60;;;0.30;;
4672;SDS011;61885;53.560;9.940;2023-02-17T05:17:47;0.70;;;0.40;;
4672;SDS011;61885;53.560;9.940;2023-02-17T05:20:19;0.60;;;0.30;;
4672;SDS011;61885;53.560;9.940;2023-02-17T05:22:51;0.60;;;0.30;;
4672;SDS011;61885;53.560;9.940;2023-02-17T05:25:23;0.73;;;0.50;;
4672;SDS011;61885;53.560;9.940;2023-02-17T05:27:52;0.60;;;0.30;;
4672;SDS011;61885;53.560;9.940;2023-02-17T05:30:22;0.60;;;0.30;;
4672;SDS011;61885;53.560;9.940;2023-02-17T05:32:52;0.60;;;0.30;;
4672;SDS011;61885;53.560;9.940;2023-02-17T05:35:22;2.13;;;0.60;;
4672;SDS011;61885;53.560;9.940;2023-02-17T05:37:55;0.60;;;0.30;;
4672;SDS011;61885;53.560;9.940;2023-02-17T05:40:24;0.60;;;0.30;;
4672;SDS011;61885;53.560;9.940;2023-02-17T05:42:55;0.60;;;0.30;;
4672;SDS011;61885;53.560;9.940;2023-02-17T05:45:25;0.60;;;0.30;;
4672;SDS011;61885;53.560;9.940;2023-02-17T05:47:57;0.60;;;0.30;;
4672;SDS011;61885;53.560;9.940;2023-02-17T05:50:29;0.60;;;0.30;;
4672;SDS011;61885;53.560;9.940;2023-02-17T05:53:04;0.60;;;0.30;;
4672;SDS011;61885;53.560;9.940;2023-02-17T05:55:38;1.00;;;0.33;;
4672;SDS011;61885;53.560;9.940;2023-02-17T05:58:08;0.60;;;0.30;;
4672;SDS011;61885;53.560;9.940;2023-02-17T06:00:42;0.60;;;0.30;;
4672;SDS011;61885;53.560;9.940;2023-02-17T06:03:13;0.70;;;0.30;;
4672;SDS011;61885;53.560;9.940;2023-02-17T06:05:43;0.70;;;0.40;;
4672;SDS011;61885;53.560;9.940;2023-02-17T06:08:16;0.70;;;0.30;;
4672;SDS011;61885;53.560;9.940;2023-02-17T06:10:45;0.70;;;0.30;;
4672;SDS011;61885;53.560;9.940;2023-02-17T06:13:15;0.70;;;0.30;;
4672;SDS011;61885;53.560;9.940;2023-02-17T06:15:45;0.70;;;0.30;;
4672;SDS011;61885;53.560;9.940;2023-02-17T06:18:16;0.70;;;0.40;;
4672;SDS011;61885;53.560;9.940;2023-02-17T06:20:46;0.70;;;0.30;;
4672;SDS011;61885;53.560;9.940;2023-02-17T06:23:18;0.70;;;0.30;;
4672;SDS011;61885;53.560;9.940;2023-02-17T06:25:52;0.70;;;0.30;;
4672;SDS011;61885;53.560;9.940;2023-02-17T06:28:22;11.40;;;5.40;;
4672;SDS011;61885;53.560;9.940;2023-02-17T06:30:54;21.63;;;9.80;;
4672;SDS011;61885;53.560;9.940;2023-02-17T06:33:24;23.43;;;8.40;;
4672;SDS011;61885;53.560;9.940;2023-02-17T06:35:54;4.97;;;2.73;;
4672;SDS011;61885;53.560;9.940;2023-02-17T06:38:27;7.27;;;4.13;;
4672;SDS011;61885;53.560;9.940;2023-02-17T06:40:58;1.03;;;0.93;;
4672;SDS011;61885;53.560;9.940;2023-02-17T06:43:27;14.83;;;7.50;;
4672;SDS011;61885;53.560;9.940;2023-02-17T06:45:57;8.13;;;1.20;;
4672;SDS011;61885;53.560;9.940;2023-02-17T06:48:27;3.27;;;2.70;;
4672;SDS011;61885;53.560;9.940;2023-02-17T06:50:59;9.57;;;4.23;;
4672;SDS011;61885;53.560;9.940;2023-02-17T06:53:34;25.53;;;10.00;;
4672;SDS011;61885;53.560;9.940;2023-02-17T06:56:07;20.27;;;9.87;;
4672;SDS011;61885;53.560;9.940;2023-02-17T06:58:37;16.97;;;9.63;;
4672;SDS011;61885;53.560;9.940;2023-02-17T07:01:13;26.43;;;8.83;;
4672;SDS011;61885;53.560;9.940;2023-02-17T07:03:45;17.13;;;8.33;;
4672;SDS011;61885;53.560;9.940;2023-02-17T07:06:16;27.67;;;8.87;;
4672;SDS011;61885;53.560;9.940;2023-02-17T07:08:49;25.67;;;10.37;;
4672;SDS011;61885;53.560;9.940;2023-02-17T07:11:21;23.43;;;9.50;;
4672;SDS011;61885;53.560;9.940;2023-02-17T07:13:52;18.90;;;8.00;;
4672;SDS011;61885;53.560;9.940;2023-02-17T07:16:23;29.93;;;10.40;;
4672;SDS011;61885;53.560;9.940;2023-02-17T07:18:55;24.07;;;9.60;;
4672;SDS011;61885;53.560;9.940;2023-02-17T07:21:24;32.80;;;10.40;;
4672;SDS011;61885;53.560;9.940;2023-02-17T07:23:57;20.10;;;8.80;;
4672;SDS011;61885;53.560;9.940;2023-02-17T07:26:26;22.70;;;9.13;;
4672;SDS011;61885;53.560;9.940;2023-02-17T07:28:56;28.70;;;9.90;;
4672;SDS011;61885;53.560;9.940;2023-02-17T07:31:31;21.17;;;9.23;;
4672;SDS011;61885;53.560;9.940;2023-02-17T07:34:02;26.57;;;8.93;;
4672;SDS011;61885;53.560;9.940;2023-02-17T07:36:33;29.50;;;11.20;;
4672;SDS011;61885;53.560;9.940;2023-02-17T07:39:07;29.60;;;11.33;;
4672;SDS011;61885;53.560;9.940;2023-02-17T07:41:39;27.40;;;9.93;;
4672;SDS011;61885;53.560;9.940;2023-02-17T07:44:09;29.33;;;9.63;;
4672;SDS011;61885;53.560;9.940;2023-02-17T07:46:40;34.63;;;11.20;;
4672;SDS011;61885;53.560;9.940;2023-02-17T07:49:13;28.67;;;9.73;;
4672;SDS011;61885;53.560;9.940;2023-02-17T07:51:44;38.40;;;12.13;;
4672;SDS011;61885;53.560;9.940;2023-02-17T07:54:18;25.13;;;9.90;;
4672;SDS011;61885;53.560;9.940;2023-02-17T07:56:54;31.63;;;9.43;;
4672;SDS011;61885;53.560;9.940;2023-02-17T07:59:27;32.27;;;12.10;;
4672;SDS011;61885;53.560;9.940;2023-02-17T08:01:57;35.03;;;13.00;;
4672;SDS011;61885;53.560;9.940;2023-02-17T08:04:28;31.93;;;10.10;;
4672;SDS011;61885;53.560;9.940;2023-02-17T08:06:58;31.50;;;9.90;;
4672;SDS011;61885;53.560;9.940;2023-02-17T08:09:30;30.97;;;12.03;;
4672;SDS011;61885;53.560;9.940;2023-02-17T08:12:14;29.97;;;10.13;;
4672;SDS011;61885;53.560;9.940;2023-02-17T08:14:58;34.60;;;10.17;;
4672;SDS011;61885;53.560;9.940;2023-02-17T08:17:28;26.33;;;9.50;;
4672;SDS011;61885;53.560;9.940;2023-02-17T08:19:58;24.87;;;8.23;;
4672;SDS011;61885;53.560;9.940;2023-02-17T08:22:28;32.10;;;9.13;;
4672;SDS011;61885;53.560;9.940;2023-02-17T08:25:00;22.00;;;7.90;;
4672;SDS011;61885;53.560;9.940;2023-02-17T08:27:31;27.43;;;8.37;;
4672;SDS011;61885;53.560;9.940;2023-02-17T08:30:00;14.07;;;5.70;;
4672;SDS011;61885;53.560;9.940;2023-02-17T08:32:30;23.53;;;7.73;;
4672;SDS011;61885;53.560;9.940;2023-02-17T08:35:00;22.77;;;8.50;;
4672;SDS011;61885;53.560;9.940;2023-02-17T08:37:33;25.13;;;8.37;;
4672;SDS011;61885;53.560;9.940;2023-02-17T08:40:10;22.00;;;8.60;;
4672;SDS011;61885;53.560;9.940;2023-02-17T08:42:42;21.13;;;8.40;;
4672;SDS011;61885;53.560;9.940;2023-02-17T08:45:12;21.13;;;7.63;;
4672;SDS011;61885;53.560;9.940;2023-02-17T08:47:42;25.03;;;7.57;;
4672;SDS011;61885;53.560;9.940;2023-02-17T08:50:15;14.63;;;6.10;;
4672;SDS011;61885;53.560;9.940;2023-02-17T08:52:45;22.00;;;7.97;;
4672;SDS011;61885;53.560;9.940;2023-02-17T08:55:18;13.30;;;6.30;;
4672;SDS011;61885;53.560;9.940;2023-02-17T08:57:48;23.23;;;8.07;;
4672;SDS011;61885;53.560;9.940;2023-02-17T09:00:20;19.80;;;6.70;;
4672;SDS011;61885;53.560;9.940;2023-02-17T09:02:50;28.07;;;8.07;;
4672;SDS011;61885;53.560;9.940;2023-02-17T09:05:21;23.23;;;7.93;;
4672;SDS011;61885;53.560;9.940;2023-02-17T09:07:51;26.03;;;9.37;;
4672;SDS011;61885;53.560;9.940;2023-02-17T09:10:24;16.13;;;6.57;;
4672;SDS011;61885;53.560;9.940;2023-02-17T09:12:56;19.80;;;7.57;;
4672;SDS011;61885;53.560;9.940;2023-02-17T09:15:25;12.53;;;5.13;;
4672;SDS011;61885;53.560;9.940;2023-02-17T09:17:55;24.30;;;8.50;;
4672;SDS011;61885;53.560;9.940;2023-02-17T09:20:24;19.07;;;7.70;;
4672;SDS011;61885;53.560;9.940;2023-02-17T09:22:59;18.77;;;7.30;;
4672;SDS011;61885;53.560;9.940;2023-02-17T09:25:31;24.03;;;7.57;;
4672;SDS011;61885;53.560;9.940;2023-02-17T09:28:03;13.77;;;6.33;;
4672;SDS011;61885;53.560;9.940;2023-02-17T09:30:36;13.67;;;5.70;;
4672;SDS011;61885;53.560;9.940;2023-02-17T09:33:06;17.87;;;6.27;;
4672;SDS011;61885;53.560;9.940;2023-02-17T09:35:39;17.20;;;6.63;;
4672;SDS011;61885;53.560;9.940;2023-02-17T09:38:12;12.93;;;6.60;;
4672;SDS011;61885;53.560;9.940;2023-02-17T09:40:49;15.00;;;5.20;;
4672;SDS011;61885;53.560;9.940;2023-02-17T09:43:25;14.70;;;6.57;;
4672;SDS011;61885;53.560;9.940;2023-02-17T09:46:09;18.90;;;6.73;;
4672;SDS011;61885;53.560;9.940;2023-02-17T09:48:44;14.07;;;5.93;;
4672;SDS011;61885;53.560;9.940;2023-02-17T09:51:25;8.83;;;3.90;;
4672;SDS011;61885;53.560;9.940;2023-02-17T09:54:02;16.70;;;6.13;;
4672;SDS011;61885;53.560;9.940;2023-02-17T09:56:49;15.30;;;5.20;;
4672;SDS011;61885;53.560;9.940;2023-02-17T09:59:21;12.80;;;5.73;;
4672;SDS011;61885;53.560;9.940;2023-02-17T10:02:05;18.27;;;5.33;;
4672;SDS011;61885;53.560;9.940;2023-02-17T10:04:41;16.00;;;5.17;;
4672;SDS011;61885;53.560;9.940;2023-02-17T10:07:18;14.83;;;6.90;;
4672;SDS011;61885;53.560;9.940;2023-02-17T10:09:54;12.67;;;5.20;;
4672;SDS011;61885;53.560;9.940;2023-02-17T10:12:37;15.67;;;5.97;;
4672;SDS011;61885;53.560;9.940;2023-02-17T10:15:12;7.63;;;4.00;;
4672;SDS011;61885;53.560;9.940;2023-02-17T10:17:49;13.63;;;6.00;;
4672;SDS011;61885;53.560;9.940;2023-02-17T10:20:27;15.93;;;7.33;;
4672;SDS011;61885;53.560;9.940;2023-02-17T10:23:03;13.70;;;6.67;;
4672;SDS011;61885;53.560;9.940;2023-02-17T10:28:42;20.93;;;6.90;;
4672;SDS011;61885;53.560;9.940;2023-02-17T10:31:20;8.47;;;5.13;;
4672;SDS011;61885;53.560;9.940;2023-02-17T10:34:10;14.23;;;6.20;;
4672;SDS011;61885;53.560;9.940;2023-02-17T10:36:48;14.50;;;6.87;;
4672;SDS011;61885;53.560;9.940;2023-02-17T10:39:33;26.57;;;8.47;;
4672;SDS011;61885;53.560;9.940;2023-02-17T10:42:08;32.43;;;8.17;;
4672;SDS011;61885;53.560;9.940;2023-02-17T10:44:54;34.90;;;9.67;;
4672;SDS011;61885;53.560;9.940;2023-02-17T10:47:30;23.03;;;8.00;;
4672;SDS011;61885;53.560;9.940;2023-02-17T10:50:00;19.50;;;8.20;;
4672;SDS011;61885;53.560;9.940;2023-02-17T10:52:35;18.30;;;8.53;;
4672;SDS011;61885;53.560;9.940;2023-02-17T10:55:07;16.10;;;7.00;;
4672;SDS011;61885;53.560;9.940;2023-02-17T10:57:45;18.53;;;6.77;;
4672;SDS011;61885;53.560;9.940;2023-02-17T11:00:19;13.00;;;5.43;;
4672;SDS011;61885;53.560;9.940;2023-02-17T11:02:49;14.97;;;6.77;;
4672;SDS011;61885;53.560;9.940;2023-02-17T11:05:20;17.53;;;7.90;;
4672;SDS011;61885;53.560;9.940;2023-02-17T11:07:55;18.20;;;8.17;;
4672;SDS011;61885;53.560;9.940;2023-02-17T11:10:33;12.77;;;5.50;;
4672;SDS011;61885;53.560;9.940;2023-02-17T11:13:05;14.67;;;6.63;;
4672;SDS011;61885;53.560;9.940;2023-02-17T11:16:02;16.30;;;7.27;;
4672;SDS011;61885;53.560;9.940;2023-02-17T11:18:33;15.67;;;5.97;;
4672;SDS011;61885;53.560;9.940;2023-02-17T11:21:14;14.23;;;5.93;;
4672;SDS011;61885;53.560;9.940;2023-02-17T11:23:50;15.07;;;6.67;;
4672;SDS011;61885;53.560;9.940;2023-02-17T11:26:26;16.43;;;6.17;;
4672;SDS011;61885;53.560;9.940;2023-02-17T11:29:07;13.30;;;5.23;;
4672;SDS011;61885;53.560;9.940;2023-02-17T11:31:41;14.90;;;6.50;;
4672;SDS011;61885;53.560;9.940;2023-02-17T11:34:21;13.23;;;6.40;;
4672;SDS011;61885;53.560;9.940;2023-02-17T11:36:57;13.43;;;6.30;;
4672;SDS011;61885;53.560;9.940;2023-02-17T11:39:29;19.23;;;6.80;;
4672;SDS011;61885;53.560;9.940;2023-02-17T11:41:59;15.47;;;6.80;;
4672;SDS011;61885;53.560;9.940;2023-02-17T11:44:31;18.73;;;7.37;;
4672;SDS011;61885;53.560;9.940;2023-02-17T11:47:07;26.20;;;7.90;;
4672;SDS011;61885;53.560;9.940;2023-02-17T11:49:53;12.77;;;6.40;;
4672;SDS011;61885;53.560;9.940;2023-02-17T11:52:37;13.30;;;5.47;;
4672;SDS011;61885;53.560;9.940;2023-02-17T11:55:20;14.60;;;5.90;;
4672;SDS011;61885;53.560;9.940;2023-02-17T11:58:03;16.60;;;6.67;;
4672;SDS011;61885;53.560;9.940;2023-02-17T12:00:46;18.03;;;6.97;;
4672;SDS011;61885;53.560;9.940;2023-02-17T12:03:31;20.33;;;7.20;;
4672;SDS011;61885;53.560;9.940;2023-02-17T12:06:28;24.20;;;6.20;;
4672;SDS011;61885;53.560;9.940;2023-02-17T12:09:07;14.13;;;7.23;;
4672;SDS011;61885;53.560;9.940;2023-02-17T12:11:48;16.60;;;6.70;;
4672;SDS011;61885;53.560;9.940;2023-02-17T12:14:30;24.40;;;6.60;;
4672;SDS011;61885;53.560;9.940;2023-02-17T12:17:17;19.53;;;7.10;;
4672;SDS011;61885;53.560;9.940;2023-02-17T12:20:01;17.63;;;6.70;;
4672;SDS011;61885;53.560;9.940;2023-02-17T12:22:38;14.00;;;6.10;;
4672;SDS011;61885;53.560;9.940;2023-02-17T12:25:23;18.50;;;6.03;;
4672;SDS011;61885;53.560;9.940;2023-02-17T12:28:02;9.93;;;4.47;;
4672;SDS011;61885;53.560;9.940;2023-02-17T12:30:45;20.47;;;6.53;;
4672;SDS011;61885;53.560;9.940;2023-02-17T12:33:27;17.47;;;7.70;;
4672;SDS011;61885;53.560;9.940;2023-02-17T12:36:18;16.33;;;5.13;;
4672;SDS011;61885;53.560;9.940;2023-02-17T12:38:52;13.17;;;5.90;;
4672;SDS011;61885;53.560;9.940;2023-02-17T12:41:25;15.27;;;6.50;;
4672;SDS011;61885;53.560;9.940;2023-02-17T12:44:00;18.07;;;6.93;;
4672;SDS011;61885;53.560;9.940;2023-02-17T12:46:36;17.73;;;7.10;;
4672;SDS011;61885;53.560;9.940;2023-02-17T12:49:10;12.20;;;4.50;;
4672;SDS011;61885;53.560;9.940;2023-02-17T12:51:48;12.43;;;4.80;;
4672;SDS011;61885;53.560;9.940;2023-02-17T12:54:22;10.97;;;5.83;;
4672;SDS011;61885;53.560;9.940;2023-02-17T12:57:04;7.60;;;4.00;;
4672;SDS011;61885;53.560;9.940;2023-02-17T12:59:41;6.80;;;4.80;;
4672;SDS011;61885;53.560;9.940;2023-02-17T13:02:13;13.80;;;3.73;;
4672;SDS011;61885;53.560;9.940;2023-02-17T13:04:44;10.00;;;5.23;;
4672;SDS011;61885;53.560;9.940;2023-02-17T13:10:17;11.73;;;5.60;;
4672;SDS011;61885;53.560;9.940;2023-02-17T13:12:59;4.37;;;2.90;;
4672;SDS011;61885;53.560;9.940;2023-02-17T13:15:32;11.20;;;3.63;;
4672;SDS011;61885;53.560;9.940;2023-02-17T13:18:06;6.87;;;4.60;;
4672;SDS011;61885;53.560;9.940;2023-02-17T13:20:50;6.93;;;2.97;;
4672;SDS011;61885;53.560;9.940;2023-02-17T13:23:31;9.90;;;3.70;;
4672;SDS011;61885;53.560;9.940;2023-02-17T13:26:10;6.30;;;3.43;;
4672;SDS011;61885;53.560;9.940;2023-02-17T13:28:46;3.20;;;2.10;;
4672;SDS011;61885;53.560;9.940;2023-02-17T13:31:18;10.60;;;3.50;;
4672;SDS011;61885;53.560;9.940;2023-02-17T13:33:50;6.23;;;3.70;;
4672;SDS011;61885;53.560;9.940;2023-02-17T13:36:33;8.93;;;3.93;;
4672;SDS011;61885;53.560;9.940;2023-02-17T13:45:12;13.37;;;4.47;;
4672;SDS011;61885;53.560;9.940;2023-02-17T13:47:51;5.43;;;3.60;;
4672;SDS011;61885;53.560;9.940;2023-02-17T13:50:30;9.90;;;5.30;;
4672;SDS011;61885;53.560;9.940;2023-02-17T13:53:19;10.30;;;3.90;;
4672;SDS011;61885;53.560;9.940;2023-02-17T13:55:58;17.30;;;4.07;;
4672;SDS011;61885;53.560;9.940;2023-02-17T13:58:30;12.40;;;4.03;;
4672;SDS011;61885;53.560;9.940;2023-02-17T14:01:04;6.37;;;4.30;;
4672;SDS011;61885;53.560;9.940;2023-02-17T14:03:44;7.80;;;3.67;;
4672;SDS011;61885;53.560;9.940;2023-02-17T14:06:22;7.50;;;3.70;;
4672;SDS011;61885;53.560;9.940;2023-02-17T14:08:55;11.13;;;3.33;;
4672;SDS011;61885;53.560;9.940;2023-02-17T14:11:35;10.43;;;4.20;;
4672;SDS011;61885;53.560;9.940;2023-02-17T14:14:09;10.90;;;3.60;;
4672;SDS011;61885;53.560;9.940;2023-02-17T14:16:54;6.87;;;3.30;;
4672;SDS011;61885;53.560;9.940;2023-02-17T14:19:27;7.07;;;3.77;;
4672;SDS011;61885;53.560;9.940;2023-02-17T14:21:59;10.23;;;3.33;;
4672;SDS011;61885;53.560;9.940;2023-02-17T14:24:31;7.67;;;2.90;;
4672;SDS011;61885;53.560;9.940;2023-02-17T14:27:09;8.30;;;3.47;;
4672;SDS011;61885;53.560;9.940;2023-02-17T14:29:42;2.83;;;2.37;;
4672;SDS011;61885;53.560;9.940;2023-02-17T14:32:27;8.00;;;2.40;;
4672;SDS011;61885;53.560;9.940;2023-02-17T14:37:50;4.83;;;2.17;;
4672;SDS011;61885;53.560;9.940;2023-02-17T14:40:21;5.30;;;2.10;;
4672;SDS011;61885;53.560;9.940;2023-02-17T14:42:55;4.00;;;2.10;;
4672;SDS011;61885;53.560;9.940;2023-02-17T14:45:27;4.70;;;1.77;;
4672;SDS011;61885;53.560;9.940;2023-02-17T14:47:58;5.73;;;1.20;;
4672;SDS011;61885;53.560;9.940;2023-02-17T14:50:33;7.10;;;1.20;;
4672;SDS011;61885;53.560;9.940;2023-02-17T14:53:10;5.60;;;1.30;;
4672;SDS011;61885;53.560;9.940;2023-02-17T14:55:49;5.60;;;1.70;;
4672;SDS011;61885;53.560;9.940;2023-02-17T14:58:29;2.23;;;0.70;;
4672;SDS011;61885;53.560;9.940;2023-02-17T15:01:06;4.40;;;0.67;;
4672;SDS011;61885;53.560;9.940;2023-02-17T15:03:49;8.33;;;1.03;;
4672;SDS011;61885;53.560;9.940;2023-02-17T15:06:22;4.87;;;1.33;;
4672;SDS011;61885;53.560;9.940;2023-02-17T15:08:54;10.00;;;1.47;;
4672;SDS011;61885;53.560;9.940;2023-02-17T15:11:26;8.17;;;1.83;;
4672;SDS011;61885;53.560;9.940;2023-02-17T15:14:05;4.50;;;0.87;;
4672;SDS011;61885;53.560;9.940;2023-02-17T15:16:35;2.60;;;0.80;;
4672;SDS011;61885;53.560;9.940;2023-02-17T15:19:05;6.93;;;1.40;;
4672;SDS011;61885;53.560;9.940;2023-02-17T15:21:36;13.43;;;1.37;;
4672;SDS011;61885;53.560;9.940;2023-02-17T15:24:11;5.07;;;0.83;;
4672;SDS011;61885;53.560;9.940;2023-02-17T15:26:43;3.40;;;0.93;;
4672;SDS011;61885;53.560;9.940;2023-02-17T15:29:17;7.03;;;1.20;;
4672;SDS011;61885;53.560;9.940;2023-02-17T15:31:59;12.93;;;0.93;;
4672;SDS011;61885;53.560;9.940;2023-02-17T15:34:34;1.00;;;0.77;;
4672;SDS011;61885;53.560;9.940;2023-02-17T15:37:04;5.83;;;1.00;;
4672;SDS011;61885;53.560;9.940;2023-02-17T15:39:36;4.70;;;1.40;;
4672;SDS011;61885;53.560;9.940;2023-02-17T15:42:09;5.43;;;1.37;;
4672;SDS011;61885;53.560;9.940;2023-02-17T15:44:44;10.40;;;1.10;;
4672;SDS011;61885;53.560;9.940;2023-02-17T15:47:18;7.80;;;1.27;;
4672;SDS011;61885;53.560;9.940;2023-02-17T15:49:57;5.90;;;1.30;;
4672;SDS011;61885;53.560;9.940;2023-02-17T15:52:27;12.20;;;2.23;;
4672;SDS011;61885;53.560;9.940;2023-02-17T15:54:58;6.63;;;1.60;;